Terminal Aerodrome Forecast
Issued by NWS

Home | Current Version | Previous Version | Text Only | Print | Product List | Glossary On
Versions: 1 2 3 4 5 6 7 8 9 10 11 12 13 14 15 16 17 18 19 20 21 22 23 24 25 26
168
FTUS44 KHGX 060818 AAA
TAFUTS
TAF AMD
KUTS 060818Z 0608/0706 15004KT P6SM SKC
     FM060900 15005KT P6SM VCTS SCT040CB OVC090
      TEMPO 0609/0611 6SM -SHRA BR BKN040
     FM061400 23006KT P6SM BKN035
     FM061700 34008KT P6SM SCT035
     FM062300 36007KT P6SM BKN030=

USA.gov is the U.S. government's official web portal to all federal, state and local government web resources and services.